• Join FlightAware (Why Join?)
  • Login
  • US Flag 
11:30PM EDT


 

Airport Tracker/Info


-or-


 

Live Flight TrackerFlight Track Log ✈ SKW2990 ✈ 18-Jul-2013 ✈ KPHX - KABQ

Flight Track Log - Related Links

Times and Time Zones

All times are in EDT time to prevent confusion due to time zone crossing. See the SKW2990 flight status page for this flight to view local times or setup timezone preferences in your user account.

Time Position Orientation Groundspeed Altitude Reporting Facility
EDT Latitude Longitude Course Direction KTS MPH feet Rate Location/Type
03:01AM 33.4333 -111.9833 59° Northeast 154 177 2,000  Level Phoenix TRACON
03:02AM 33.4500 -111.9500 59° Northeast 175 201 3,000 2,220 Climbing Phoenix TRACON
03:03AM 33.4333 -111.8667 103° East 219 252 6,000 2,520 Climbing Phoenix TRACON
03:04AM 33.4181 -111.8150 109° East 243 280 7,800 2,220 Climbing Albuquerque Center
03:05AM 33.3486 -111.7711 152° Southeast 278 320 10,000 2,400 Climbing Albuquerque Center
03:06AM 33.2617 -111.7825 186° South 311 358 12,700 2,580 Climbing Albuquerque Center
03:07AM 33.1717 -111.8047 192° South 325 374 15,300 2,400 Climbing Albuquerque Center
03:08AM 33.0839 -111.8444 201° Southwest 333 383 17,600 1,920 Climbing Albuquerque Center
03:09AM 32.9919 -111.8861 201° Southwest 347 399 19,200 1,440 Climbing Albuquerque Center
03:10AM 32.9178 -111.8111 140° Southeast 350 403 20,600 1,200 Climbing Albuquerque Center
03:11AM 32.9292 -111.7067 83° East 339 390 21,700 1,140 Climbing Albuquerque Center
03:12AM 32.9725 -111.6053 63° Northeast 342 394 23,000 1,080 Climbing Albuquerque Center
03:13AM 33.0219 -111.4997 61° Northeast 359 413 23,900 960 Climbing Albuquerque Center
03:14AM 33.0753 -111.3836 61° Northeast 388 447 25,000 1,140 Climbing Albuquerque Center
03:15AM 33.1292 -111.2653 61° Northeast 403 464 26,300 960 Climbing Albuquerque Center
03:16AM 33.1847 -111.1453 61° Northeast 412 474 27,000 300 Climbing Albuquerque Center
03:17AM 33.2422 -111.0175 62° Northeast 430 495 27,000  Level Albuquerque Center
03:18AM 33.3033 -110.8861 61° Northeast 447 514 27,000  Level Albuquerque Center
03:19AM 33.3744 -110.7297 61° Northeast 449 517 27,000  Level Albuquerque Center
03:20AM 33.4322 -110.6008 62° Northeast 447 514 27,000  Level Albuquerque Center
03:21AM 33.4917 -110.4689 62° Northeast 447 514 27,000  Level Albuquerque Center
03:22AM 33.5489 -110.3394 62° Northeast 445 512 27,000  Level Albuquerque Center
03:23AM 33.6069 -110.2086 62° Northeast 445 512 27,000  Level Albuquerque Center
03:24AM 33.6647 -110.0789 62° Northeast 444 511 27,000  Level Albuquerque Center
03:25AM 33.7219 -109.9483 62° Northeast 443 510 27,000  Level Albuquerque Center
03:26AM 33.7781 -109.8186 62° Northeast 440 506 27,000  Level Albuquerque Center
03:27AM 33.8367 -109.6869 62° Northeast 443 510 27,000  Level Albuquerque Center
03:28AM 33.8942 -109.5558 62° Northeast 443 510 27,000  Level Albuquerque Center
03:29AM 33.9528 -109.4231 62° Northeast 447 514 27,000  Level Albuquerque Center
03:30AM 34.0103 -109.2892 63° Northeast 449 517 27,000  Level Albuquerque Center
03:31AM 34.0681 -109.1544 63° Northeast 450 518 27,000  Level Albuquerque Center
03:32AM 34.1281 -109.0161 62° Northeast 458 527 27,000  Level Albuquerque Center
03:33AM 34.1881 -108.8756 63° Northeast 466 536 27,000  Level Albuquerque Center
03:34AM 34.2483 -108.7392 62° Northeast 465 535 27,000  Level Albuquerque Center
03:35AM 34.3103 -108.5908 63° Northeast 463 533 27,000  Level Albuquerque Center
03:36AM 34.3711 -108.4469 63° Northeast 469 540 27,000  Level Albuquerque Center
03:37AM 34.4292 -108.3078 63° Northeast 464 534 27,000  Level Albuquerque Center
03:38AM 34.4889 -108.1672 63° Northeast 468 539 27,000 -660 Level Albuquerque Center
03:39AM 34.5475 -108.0281 63° Northeast 466 536 25,700 -2,220 Descending Albuquerque Center
03:40AM 34.6031 -107.8936 63° Northeast 454 522 22,600 -3,060 Descending Albuquerque Center
03:41AM 34.6586 -107.7619 63° Northeast 433 498 19,600 -2,880 Descending Albuquerque Center
03:42AM 34.6908 -107.6839 63° Northeast 412 474 17,900 -2,100 Descending Albuquerque Center
03:43AM 34.7417 -107.5556 64° Northeast 387 445 16,000 -1,440 Descending Albuquerque Center
03:44AM 34.7750 -107.4364 71° East 364 419 14,900 -1,620 Descending Albuquerque Center
03:45AM 34.8053 -107.3128 73° East 383 441 12,800 -1,800 Descending Albuquerque Center
03:46AM 34.8347 -107.1969 73° East 364 419 11,300 -1,440 Descending Albuquerque Center
03:47AM 34.8578 -107.0956 74° East 295 339 10,000 -1,200 Descending Albuquerque Center
03:48AM 34.8847 -106.9833 74° East 299 344 8,600 -1,020 Descending Albuquerque Center
03:49AM 34.9033 -106.9133 72° East 256 295 8,000 -300 Descending Albuquerque Center
03:50AM 34.9228 -106.8222 75° East 258 297 8,000  Level Albuquerque Center
03:51AM 34.9414 -106.7467 73° East 239 275 8,000 -600 Level Albuquerque Center
03:52AM 34.9669 -106.6942 59° Northeast 203 234 6,800 -1,020 Descending Albuquerque Center
03:53AM 35.0008 -106.6539 44° Northeast 182 209 6,000 -780 Descending Albuquerque Center
03:54AM 35.0361 -106.6125 44° Northeast 173 199 5,300 -720 Descending Albuquerque Center
03:56AM 35.0333 -106.6000 59° Northeast  Level FlightAware Approximate